createdAt,value
2023-08-07T00:00:01.656Z,14.09
2023-08-07T00:05:00.537Z,14.09
2023-08-07T00:10:00.467Z,14.09
2023-08-07T00:15:00.601Z,14.09
2023-08-07T00:20:01.659Z,14.09
2023-08-07T00:25:00.549Z,14.09
2023-08-07T00:30:03.700Z,13.98
2023-08-07T00:35:00.736Z,13.98
2023-08-07T00:40:01.092Z,13.98
2023-08-07T00:45:02.669Z,13.98
2023-08-07T00:50:01.441Z,13.67
2023-08-07T00:55:00.478Z,13.67
2023-08-07T01:00:04.291Z,13.67
2023-08-07T01:05:00.716Z,13.67
2023-08-07T01:10:03.339Z,13.67
2023-08-07T01:15:00.778Z,13.67
2023-08-07T01:20:01.297Z,13.67
2023-08-07T01:25:00.448Z,13.67
2023-08-07T01:30:03.882Z,13.67
2023-08-07T01:35:00.661Z,13.48
2023-08-07T01:40:01.195Z,13.48
2023-08-07T01:45:00.673Z,13.43
2023-08-07T01:50:00.882Z,13.43
2023-08-07T01:55:00.456Z,13.43
2023-08-07T02:00:01.747Z,13.43
2023-08-07T02:05:00.646Z,13.43
2023-08-07T02:10:01.644Z,13.43
2023-08-07T02:15:00.713Z,13.43
2023-08-07T02:20:00.451Z,13.43
2023-08-07T02:25:00.520Z,13.43
2023-08-07T02:30:02.418Z,13.43
2023-08-07T02:35:00.514Z,13.26
2023-08-07T02:40:00.500Z,13.25
2023-08-07T02:45:01.747Z,13.25
2023-08-07T02:50:00.816Z,13.25
2023-08-07T02:55:00.628Z,13.25
2023-08-07T03:00:00.817Z,13.25
2023-08-07T03:05:01.416Z,13.25
2023-08-07T03:10:00.490Z,13.25
2023-08-07T03:15:04.247Z,13.25
2023-08-07T03:20:00.936Z,13.25
2023-08-07T03:25:00.956Z,13.25
2023-08-07T03:30:02.373Z,12.95
2023-08-07T03:35:00.635Z,12.98
2023-08-07T03:40:00.569Z,12.98
2023-08-07T03:45:00.601Z,12.98
2023-08-07T03:50:01.004Z,12.98
2023-08-07T03:55:00.443Z,12.98
2023-08-07T04:00:00.736Z,12.98
2023-08-07T04:05:00.677Z,12.98
2023-08-07T04:10:00.570Z,12.98
2023-08-07T04:15:01.156Z,12.98
2023-08-07T04:20:00.556Z,12.98
2023-08-07T04:25:00.629Z,12.97
2023-08-07T04:30:01.304Z,13.11
2023-08-07T04:35:00.575Z,13.11
2023-08-07T04:40:00.436Z,13.11
2023-08-07T04:45:00.583Z,13.11
2023-08-07T04:50:00.375Z,13.11
2023-08-07T04:55:00.336Z,13.11
2023-08-07T05:00:01.394Z,13.11
2023-08-07T05:05:00.546Z,13.11
2023-08-07T05:10:00.638Z,13.11
2023-08-07T05:15:00.454Z,13.11
2023-08-07T05:20:00.450Z,13.11
2023-08-07T05:25:01.695Z,13.11
2023-08-07T05:30:02.819Z,13.09
2023-08-07T05:35:00.790Z,13.09
2023-08-07T05:40:01.580Z,13.09
2023-08-07T05:45:00.419Z,13.09
2023-08-07T05:50:01.171Z,13.09
2023-08-07T05:55:02.222Z,13.09
2023-08-07T06:00:00.416Z,13.23
2023-08-07T06:05:00.580Z,13.23
2023-08-07T06:10:00.327Z,13.23
2023-08-07T06:15:00.351Z,13.41
2023-08-07T06:20:01.847Z,13.46
2023-08-07T06:25:00.286Z,13.46
2023-08-07T06:30:02.539Z,13.46
2023-08-07T06:35:00.836Z,13.46
2023-08-07T06:40:00.692Z,13.76
2023-08-07T06:45:00.428Z,13.76
2023-08-07T06:50:00.384Z,13.76
2023-08-07T06:55:00.446Z,13.76
2023-08-07T07:00:00.829Z,13.74
2023-08-07T07:05:00.706Z,13.74
2023-08-07T07:10:00.358Z,13.84
2023-08-07T07:15:00.461Z,13.84
2023-08-07T07:20:01.010Z,13.84
2023-08-07T07:25:00.286Z,13.84
2023-08-07T07:30:03.560Z,13.84
2023-08-07T07:35:00.388Z,13.92
2023-08-07T07:40:00.649Z,13.92
2023-08-07T07:45:00.434Z,13.92
2023-08-07T07:50:00.567Z,13.92
2023-08-07T07:55:00.306Z,14.08
2023-08-07T08:00:00.652Z,14.11
2023-08-07T08:05:00.469Z,14.11
2023-08-07T08:10:00.345Z,14.17
2023-08-07T08:15:00.445Z,14.17
2023-08-07T08:20:00.381Z,14.17
2023-08-07T08:25:00.411Z,14.17
2023-08-07T08:30:00.813Z,14.17
2023-08-07T08:35:00.768Z,14.46
2023-08-07T08:40:00.711Z,14.46
2023-08-07T08:45:00.410Z,14.46
2023-08-07T08:50:01.360Z,14.46
2023-08-07T08:55:00.300Z,14.77
2023-08-07T09:00:00.515Z,14.98
2023-08-07T09:05:00.681Z,15.28
2023-08-07T09:10:00.311Z,15.28
2023-08-07T09:15:01.009Z,15.79
2023-08-07T09:20:00.373Z,15.79
2023-08-07T09:25:00.384Z,15.79
2023-08-07T09:30:03.287Z,16.31
2023-08-07T09:35:00.930Z,16.31
2023-08-07T09:40:00.565Z,16.31
2023-08-07T09:45:00.623Z,16.27
2023-08-07T09:50:00.438Z,16.27
2023-08-07T09:55:00.309Z,16.51
2023-08-07T10:00:00.533Z,16.51
2023-08-07T10:05:01.009Z,16.55
2023-08-07T10:10:00.290Z,16.55
2023-08-07T10:15:00.513Z,16.55
2023-08-07T10:20:00.422Z,16.55
2023-08-07T10:25:00.480Z,16.55
2023-08-07T10:30:02.923Z,16.25
2023-08-07T10:35:00.509Z,16.25
2023-08-07T10:40:00.628Z,16.25
2023-08-07T10:45:00.578Z,16.25
2023-08-07T10:50:00.466Z,16.25
2023-08-07T10:55:00.752Z,16.08
2023-08-07T11:00:00.628Z,16.08
2023-08-07T11:05:02.457Z,16.08
2023-08-07T11:10:00.421Z,16.08
2023-08-07T11:15:00.658Z,16.08
2023-08-07T11:20:00.479Z,16.08
2023-08-07T11:25:02.353Z,16.08
2023-08-07T11:30:01.812Z,16.08
2023-08-07T11:35:02.602Z,16.08
2023-08-07T11:40:01.641Z,15.96
2023-08-07T11:45:00.529Z,15.83
2023-08-07T11:50:01.115Z,15.83
2023-08-07T11:55:00.328Z,15.83
2023-08-07T12:00:00.617Z,15.83
2023-08-07T12:05:00.767Z,15.76
2023-08-07T12:10:00.315Z,15.76
2023-08-07T12:15:02.024Z,15.76
2023-08-07T12:20:01.873Z,15.76
2023-08-07T12:25:00.354Z,15.76
2023-08-07T12:30:04.349Z,15.76
2023-08-07T12:45:00.402Z,16.07
2023-08-07T12:50:00.498Z,16.17
2023-08-07T12:55:01.137Z,16.17
2023-08-07T13:00:02.057Z,16.17
2023-08-07T13:05:00.523Z,16.17
2023-08-07T13:10:00.695Z,16.17
2023-08-07T13:15:00.534Z,16.1
2023-08-07T13:20:00.493Z,16.1
2023-08-07T13:25:00.361Z,16.1
2023-08-07T13:30:01.474Z,15.9
2023-08-07T13:35:00.863Z,15.9
2023-08-07T13:40:00.780Z,15.74
2023-08-07T13:45:00.389Z,15.74
2023-08-07T13:50:01.023Z,15.74
2023-08-07T13:55:02.698Z,15.74
2023-08-07T14:00:00.469Z,15.38
2023-08-07T14:05:00.862Z,15.38
2023-08-07T14:10:00.301Z,15.56
2023-08-07T14:15:01.557Z,15.56
2023-08-07T14:20:00.607Z,15.56
2023-08-07T14:25:00.386Z,15.56
2023-08-07T14:30:04.843Z,15.67
2023-08-07T14:35:01.823Z,15.67
2023-08-07T14:40:00.516Z,15.67
2023-08-07T14:45:00.719Z,15.67
2023-08-07T14:50:00.322Z,15.67
2023-08-07T14:55:00.603Z,15.96
2023-08-07T15:00:00.973Z,15.96
2023-08-07T15:05:00.516Z,15.96
2023-08-07T15:10:00.378Z,15.96
2023-08-07T15:15:06.375Z,15.96
2023-08-07T15:20:00.385Z,15.65
2023-08-07T15:25:00.626Z,15.62
2023-08-07T15:30:04.287Z,15.53
2023-08-07T15:35:00.381Z,15.53
2023-08-07T15:40:00.457Z,15.53
2023-08-07T15:45:07.371Z,15.53
2023-08-07T15:50:00.324Z,15.53
2023-08-07T15:55:00.355Z,15.53
2023-08-07T16:00:00.556Z,15.52
2023-08-07T16:05:00.403Z,15.52
2023-08-07T16:10:00.414Z,15.52
2023-08-07T16:15:00.506Z,15.52
2023-08-07T16:20:00.480Z,15.52
2023-08-07T16:25:00.344Z,15.31
2023-08-07T16:30:03.176Z,15.31
2023-08-07T16:35:00.601Z,15.31
2023-08-07T16:40:00.506Z,15.31
2023-08-07T16:45:00.632Z,15.31
2023-08-07T16:50:00.321Z,15.31
2023-08-07T16:55:02.443Z,15.14
2023-08-07T17:00:00.438Z,15.14
2023-08-07T17:05:01.447Z,15.14
2023-08-07T17:10:00.366Z,15.14
2023-08-07T17:15:01.504Z,15.14
2023-08-07T17:20:00.316Z,15.14
2023-08-07T17:25:03.964Z,15.04
2023-08-07T17:30:03.278Z,15.04
2023-08-07T17:35:00.425Z,15.04
2023-08-07T17:40:00.707Z,15.04
2023-08-07T17:45:00.603Z,15.04
2023-08-07T17:50:01.122Z,15.04
2023-08-07T17:55:00.529Z,15.04
2023-08-07T18:00:01.837Z,15.04
2023-08-07T18:05:00.557Z,15.04
2023-08-07T18:10:00.333Z,15.04
2023-08-07T18:15:00.362Z,14.9
2023-08-07T18:20:00.403Z,14.82
2023-08-07T18:25:00.334Z,14.82
2023-08-07T18:30:03.090Z,14.82
2023-08-07T18:35:00.346Z,14.82
2023-08-07T18:40:02.358Z,14.82
2023-08-07T18:45:00.445Z,14.38
2023-08-07T18:50:00.374Z,14.38
2023-08-07T18:55:00.330Z,14.38
2023-08-07T19:00:00.933Z,14.11
2023-08-07T19:05:00.356Z,14.11
2023-08-07T19:10:00.342Z,14.11
2023-08-07T19:15:00.388Z,14.14
2023-08-07T19:20:02.691Z,14.11
2023-08-07T19:25:00.592Z,14.11
2023-08-07T19:30:03.098Z,14.11
2023-08-07T19:35:00.363Z,14.11
2023-08-07T19:40:00.551Z,14.11
2023-08-07T19:45:01.499Z,13.8
2023-08-07T19:50:00.300Z,13.8
2023-08-07T19:55:00.373Z,13.8
2023-08-07T20:00:00.797Z,13.8
2023-08-07T20:05:00.339Z,13.8
2023-08-07T20:10:00.415Z,13.8
2023-08-07T20:15:00.481Z,13.43
2023-08-07T20:20:00.512Z,13.43
2023-08-07T20:25:00.393Z,13.43
2023-08-07T20:30:04.858Z,13.43
2023-08-07T20:35:01.948Z,13.43
2023-08-07T20:40:00.544Z,13.43
2023-08-07T20:45:00.378Z,13.43
2023-08-07T20:50:00.521Z,13.43
2023-08-07T20:55:00.288Z,13.43
2023-08-07T21:00:00.504Z,13.43
2023-08-07T21:05:00.673Z,13.15
2023-08-07T21:10:00.415Z,13.15
2023-08-07T21:15:00.376Z,13.15
2023-08-07T21:20:00.387Z,13.15
2023-08-07T21:25:00.593Z,13.15
2023-08-07T21:30:02.507Z,13.15
2023-08-07T21:35:00.302Z,13.15
2023-08-07T21:40:00.440Z,13.15
2023-08-07T21:45:04.712Z,13.15
2023-08-07T21:50:00.334Z,13.15
2023-08-07T21:55:00.356Z,13.15
2023-08-07T22:00:00.920Z,13.15
2023-08-07T22:05:00.301Z,13.42
2023-08-07T22:10:00.393Z,13.42
2023-08-07T22:15:00.395Z,13.42
2023-08-07T22:20:05.393Z,13.42
2023-08-07T22:25:00.286Z,13.42
2023-08-07T22:30:01.884Z,13.42
2023-08-07T22:35:00.291Z,13.42
2023-08-07T22:40:00.896Z,13.42
2023-08-07T22:45:00.469Z,13.42
2023-08-07T22:50:00.333Z,13.42
2023-08-07T22:55:00.301Z,13.42
2023-08-07T23:00:00.602Z,13.33
2023-08-07T23:05:00.349Z,13.33
2023-08-07T23:10:00.401Z,13.33
2023-08-07T23:15:00.391Z,13.33
2023-08-07T23:20:00.645Z,13.33
2023-08-07T23:25:00.427Z,13.33
2023-08-07T23:30:03.748Z,12.97
2023-08-07T23:35:00.289Z,12.97
2023-08-07T23:40:00.623Z,12.97
2023-08-07T23:45:04.930Z,12.97
2023-08-07T23:50:00.280Z,12.87
2023-08-07T23:55:00.428Z,12.87
